Alvord, Iowa
Current Conditions -  °F | °C
As of 6:15 PM on Sunday 23 Nov 2014 (Local Time) from KLYV Reporting Station
Broken Clouds Broken Clouds  
Wind Chill: -3°   Ceiling: 3400
Heat Index:   Visibility: 10mi
Dew Point: -1°   Wind: 14mph
Humidity: 81%   Direction: 320°NW
Pressure: 29.52"   Gusts: 20mph
Location:  43.34°N, 96.3°W
Report Text: KLYV 240015Z AUTO 32012G17KT 10SM BKN034 02/M01 A2952 RMK AO2
Loading
Personal Weather Stations






























Interactive Weather Map New forecast layout! Learn more

10-Day Weather Forecast

Advertisements
Track Severe Weather on mobile